createdAt,value
2023-04-03T00:00:49.123Z,1.90
2023-04-03T00:03:16.338Z,2.40
2023-04-03T00:05:43.035Z,2.03
2023-04-03T00:08:10.599Z,2.20
2023-04-03T00:10:38.405Z,1.73
2023-04-03T00:13:06.920Z,2.40
2023-04-03T00:15:33.878Z,1.67
2023-04-03T00:18:00.501Z,2.60
2023-04-03T00:20:28.214Z,1.60
2023-04-03T00:22:55.389Z,1.73
2023-04-03T00:25:22.379Z,1.43
2023-04-03T00:27:48.970Z,1.50
2023-04-03T00:30:18.450Z,1.57
2023-04-03T00:32:45.236Z,1.80
2023-04-03T00:35:12.234Z,1.70
2023-04-03T00:37:39.067Z,1.80
2023-04-03T00:40:06.778Z,1.60
2023-04-03T00:42:33.416Z,1.50
2023-04-03T00:45:01.696Z,1.50
2023-04-03T00:47:29.107Z,1.50
2023-04-03T00:49:56.141Z,1.60
2023-04-03T00:52:28.469Z,1.57
2023-04-03T00:54:59.841Z,1.53
2023-04-03T00:57:27.744Z,1.70
2023-04-03T01:00:02.400Z,1.53
2023-04-03T01:02:29.153Z,1.87
2023-04-03T01:04:55.793Z,1.60
2023-04-03T01:07:30.906Z,1.70
2023-04-03T01:10:10.541Z,1.50
2023-04-03T01:12:39.832Z,1.60
2023-04-03T01:15:27.419Z,1.10
2023-04-03T01:17:58.273Z,1.57
2023-04-03T01:20:47.914Z,1.80
2023-04-03T01:23:33.800Z,1.60
2023-04-03T01:26:00.452Z,1.50
2023-04-03T01:28:35.508Z,1.50
2023-04-03T01:31:26.779Z,1.77
2023-04-03T01:33:55.904Z,1.70
2023-04-03T01:36:26.175Z,1.50
2023-04-03T01:38:54.707Z,1.40
2023-04-03T01:41:22.587Z,1.70
2023-04-03T01:43:51.140Z,1.70
2023-04-03T01:46:18.637Z,1.87
2023-04-03T01:48:46.193Z,1.80
2023-04-03T01:51:13.004Z,1.47
2023-04-03T01:53:39.688Z,1.70
2023-04-03T01:56:06.710Z,1.50
2023-04-03T01:58:33.970Z,1.50
2023-04-03T02:01:00.627Z,1.70
2023-04-03T02:03:27.407Z,1.70
2023-04-03T02:05:54.212Z,1.67
2023-04-03T02:08:21.488Z,1.70
2023-04-03T02:10:49.889Z,1.43
2023-04-03T02:13:17.621Z,1.60
2023-04-03T02:15:46.359Z,1.50
2023-04-03T02:18:16.674Z,1.53
2023-04-03T02:20:43.496Z,1.53
2023-04-03T02:23:11.371Z,1.20
2023-04-03T02:25:38.762Z,1.70
2023-04-03T02:28:06.389Z,1.33
2023-04-03T02:30:33.126Z,1.50
2023-04-03T02:32:59.882Z,1.50
2023-04-03T02:35:27.363Z,1.60
2023-04-03T02:37:56.733Z,1.60
2023-04-03T02:40:23.614Z,1.40
2023-04-03T02:42:50.986Z,1.40
2023-04-03T02:45:18.869Z,1.40
2023-04-03T02:47:45.750Z,1.30
2023-04-03T02:50:12.388Z,1.50
2023-04-03T02:52:39.081Z,1.37
2023-04-03T02:55:06.321Z,1.57
2023-04-03T02:57:33.111Z,1.43
2023-04-03T02:59:59.858Z,1.30
2023-04-03T03:02:35.472Z,1.50
2023-04-03T03:05:02.146Z,1.63
2023-04-03T03:07:28.807Z,1.70
2023-04-03T03:09:55.703Z,1.53
2023-04-03T03:12:22.961Z,1.50
2023-04-03T03:14:50.668Z,1.70
2023-04-03T03:17:17.778Z,1.57
2023-04-03T03:19:46.672Z,1.30
2023-04-03T03:22:13.370Z,1.60
2023-04-03T03:24:39.978Z,1.40
2023-04-03T03:27:06.674Z,1.70
2023-04-03T03:29:33.305Z,1.57
2023-04-03T03:31:59.946Z,1.80
2023-04-03T03:34:26.559Z,1.27
2023-04-03T03:36:53.141Z,1.57
2023-04-03T03:39:19.807Z,1.50
2023-04-03T03:41:46.738Z,1.43
2023-04-03T03:44:15.297Z,1.60
2023-04-03T03:46:42.053Z,1.53
2023-04-03T03:49:08.841Z,1.53
2023-04-03T03:51:35.459Z,1.77
2023-04-03T03:54:02.257Z,1.33
2023-04-03T03:56:28.882Z,1.70
2023-04-03T03:58:57.206Z,1.40
2023-04-03T04:01:25.571Z,1.60
2023-04-03T04:03:52.284Z,1.60
2023-04-03T04:06:22.462Z,1.50
2023-04-03T04:08:50.055Z,1.50
2023-04-03T04:11:16.716Z,1.40
2023-04-03T04:13:44.685Z,1.47
2023-04-03T04:16:13.523Z,1.30
2023-04-03T04:18:40.310Z,1.70
2023-04-03T04:21:07.054Z,1.40
2023-04-03T04:23:33.970Z,1.30
2023-04-03T04:26:01.432Z,1.90
2023-04-03T04:28:31.013Z,1.43
2023-04-03T04:31:00.151Z,1.57
2023-04-03T04:33:27.993Z,1.40
2023-04-03T04:35:56.423Z,1.53
2023-04-03T04:38:23.128Z,1.70
2023-04-03T04:40:52.354Z,1.30
2023-04-03T04:43:19.638Z,1.30
2023-04-03T04:45:49.330Z,1.50
2023-04-03T04:48:19.102Z,1.50
2023-04-03T04:50:46.181Z,1.40
2023-04-03T04:53:12.962Z,1.50
2023-04-03T04:55:39.626Z,1.30
2023-04-03T04:58:06.797Z,1.30
2023-04-03T05:00:34.153Z,1.57
2023-04-03T05:03:11.750Z,1.33
2023-04-03T05:05:39.148Z,1.50
2023-04-03T05:08:07.084Z,1.33
2023-04-03T05:10:33.756Z,1.43
2023-04-03T05:13:00.558Z,1.20
2023-04-03T05:15:27.463Z,1.20
2023-04-03T05:17:54.133Z,1.40
2023-04-03T05:20:21.273Z,1.47
2023-04-03T05:22:49.062Z,1.40
2023-04-03T05:25:15.739Z,1.20
2023-04-03T05:27:44.308Z,1.40
2023-04-03T05:30:11.477Z,1.50
2023-04-03T05:32:41.224Z,1.40
2023-04-03T05:35:16.689Z,1.40
2023-04-03T05:37:45.071Z,1.40
2023-04-03T05:40:12.095Z,1.53
2023-04-03T05:42:42.509Z,1.43
2023-04-03T05:45:09.542Z,1.30
2023-04-03T05:47:36.519Z,1.40
2023-04-03T05:50:04.432Z,1.40
2023-04-03T05:52:36.440Z,1.60
2023-04-03T05:55:03.621Z,1.40
2023-04-03T05:57:33.565Z,1.30
2023-04-03T06:00:01.424Z,1.37
2023-04-03T06:02:29.813Z,1.40
2023-04-03T06:04:57.833Z,1.30
2023-04-03T06:07:28.052Z,1.40
2023-04-03T06:09:56.789Z,1.47
2023-04-03T06:12:23.849Z,1.37
2023-04-03T06:14:51.064Z,1.20
2023-04-03T06:17:19.092Z,1.50
2023-04-03T06:19:46.631Z,1.40
2023-04-03T06:22:13.877Z,1.67
2023-04-03T06:24:41.436Z,1.40
2023-04-03T06:27:09.161Z,1.30
2023-04-03T06:29:36.080Z,1.50
2023-04-03T06:32:02.685Z,1.33
2023-04-03T06:34:29.348Z,1.40
2023-04-03T06:36:56.151Z,1.50
2023-04-03T06:39:23.813Z,1.50
2023-04-03T06:41:51.785Z,1.63
2023-04-03T06:44:26.092Z,1.20
2023-04-03T06:46:52.877Z,1.50
2023-04-03T06:49:19.474Z,1.50
2023-04-03T06:51:46.170Z,1.40
2023-04-03T06:54:13.775Z,1.60
2023-04-03T06:56:40.542Z,1.63
2023-04-03T06:59:07.181Z,1.40
2023-04-03T07:01:33.894Z,1.67
2023-04-03T07:04:00.931Z,1.53
2023-04-03T07:06:30.397Z,1.57
2023-04-03T07:08:57.082Z,1.60
2023-04-03T07:11:23.931Z,1.50
2023-04-03T07:13:51.446Z,1.40
2023-04-03T07:16:18.061Z,1.60
2023-04-03T07:18:45.324Z,1.53
2023-04-03T07:21:12.186Z,1.63
2023-04-03T07:23:39.306Z,1.50
2023-04-03T07:26:05.946Z,1.70
2023-04-03T07:28:33.391Z,1.53
2023-04-03T07:31:03.493Z,1.60
2023-04-03T07:33:30.655Z,1.60
2023-04-03T07:35:57.538Z,1.50
2023-04-03T07:38:24.331Z,1.60
2023-04-03T07:40:51.940Z,1.87
2023-04-03T07:43:19.170Z,1.53
2023-04-03T07:45:46.206Z,1.57
2023-04-03T07:48:13.644Z,2.00
2023-04-03T07:50:44.128Z,1.63
2023-04-03T07:53:11.169Z,1.53
2023-04-03T07:55:43.852Z,1.37
2023-04-03T07:58:14.050Z,1.67
2023-04-03T08:00:41.144Z,1.80
2023-04-03T08:03:11.264Z,1.60
2023-04-03T08:05:40.916Z,1.60
2023-04-03T08:08:08.589Z,1.80
2023-04-03T08:10:35.742Z,1.47
2023-04-03T08:13:03.108Z,1.50
2023-04-03T08:15:31.083Z,1.40
2023-04-03T08:17:57.767Z,1.80
2023-04-03T08:20:24.430Z,1.70
2023-04-03T08:22:51.470Z,1.90
2023-04-03T08:25:18.677Z,1.77
2023-04-03T08:27:45.881Z,1.57
2023-04-03T08:30:13.130Z,1.70
2023-04-03T08:32:40.355Z,1.60
2023-04-03T08:35:07.271Z,1.80
2023-04-03T08:37:37.576Z,1.40
2023-04-03T08:40:12.461Z,1.43
2023-04-03T08:42:57.391Z,1.63
2023-04-03T08:45:54.733Z,1.77
2023-04-03T08:48:26.769Z,1.60
2023-04-03T08:50:58.986Z,2.00
2023-04-03T08:53:33.604Z,1.50
2023-04-03T08:56:05.968Z,1.70
2023-04-03T08:58:46.766Z,1.50
2023-04-03T09:01:38.593Z,1.90
2023-04-03T09:04:13.967Z,1.60
2023-04-03T09:06:43.397Z,1.87
2023-04-03T09:09:17.784Z,1.80
2023-04-03T09:12:10.091Z,1.87
2023-04-03T09:14:57.156Z,1.63
2023-04-03T09:17:38.526Z,1.70
2023-04-03T09:20:19.811Z,2.03
2023-04-03T09:22:52.231Z,1.80
2023-04-03T09:25:26.580Z,1.80
2023-04-03T09:27:54.168Z,1.77
2023-04-03T09:30:26.584Z,1.80
2023-04-03T09:32:55.223Z,1.87
2023-04-03T09:35:44.958Z,1.97
2023-04-03T09:38:15.055Z,1.57
2023-04-03T09:41:15.646Z,1.63
2023-04-03T09:43:53.684Z,1.57
2023-04-03T09:46:33.048Z,1.70
2023-04-03T09:49:09.333Z,1.50
2023-04-03T09:51:37.497Z,1.53
2023-04-03T09:54:28.182Z,1.60
2023-04-03T09:56:56.654Z,1.83
2023-04-03T09:59:23.808Z,1.70
2023-04-03T10:02:03.744Z,1.63
2023-04-03T10:04:43.233Z,1.33
2023-04-03T10:07:37.703Z,1.40
2023-04-03T10:10:26.613Z,1.50
2023-04-03T10:13:06.643Z,1.53
2023-04-03T10:15:43.726Z,1.57
2023-04-03T10:18:39.715Z,1.60
2023-04-03T10:21:26.765Z,1.60
2023-04-03T10:24:04.086Z,1.50
2023-04-03T10:26:42.097Z,1.87
2023-04-03T10:29:22.669Z,1.43
2023-04-03T10:31:52.096Z,1.50
2023-04-03T10:34:30.788Z,1.73
2023-04-03T10:37:11.542Z,1.30
2023-04-03T10:39:54.757Z,1.37
2023-04-03T10:42:24.088Z,1.50
2023-04-03T10:44:59.523Z,1.30
2023-04-03T10:47:34.645Z,1.67
2023-04-03T10:50:08.193Z,1.60
2023-04-03T10:52:46.416Z,1.60
2023-04-03T10:55:29.531Z,1.50
2023-04-03T10:57:58.609Z,1.87
2023-04-03T11:00:36.463Z,1.57
2023-04-03T11:03:51.306Z,1.70
2023-04-03T11:06:20.634Z,1.60
2023-04-03T11:09:08.553Z,1.60
2023-04-03T11:11:38.840Z,1.47
2023-04-03T11:14:35.810Z,1.60
2023-04-03T11:17:09.900Z,1.53
2023-04-03T11:20:02.597Z,1.50
2023-04-03T11:22:35.050Z,1.60
2023-04-03T11:25:16.335Z,1.70
2023-04-03T11:27:47.122Z,2.03
2023-04-03T11:30:34.524Z,1.50
2023-04-03T11:33:16.476Z,1.50
2023-04-03T11:35:47.467Z,1.50
2023-04-03T11:38:31.509Z,1.40
2023-04-03T11:40:59.141Z,1.87
2023-04-03T11:43:27.739Z,1.73
2023-04-03T11:46:03.522Z,1.83
2023-04-03T11:48:30.592Z,2.03
2023-04-03T11:50:58.544Z,1.70
2023-04-03T11:53:31.342Z,1.67
2023-04-03T11:56:03.562Z,1.80
2023-04-03T11:58:31.826Z,1.70
2023-04-03T12:01:04.319Z,1.70
2023-04-03T12:03:33.331Z,1.63
2023-04-03T12:06:06.527Z,1.70
2023-04-03T12:08:48.219Z,1.70
2023-04-03T12:11:24.835Z,1.40
2023-04-03T12:13:57.444Z,1.70
2023-04-03T12:16:27.939Z,1.80
2023-04-03T12:18:54.552Z,1.47
2023-04-03T12:21:30.919Z,1.80
2023-04-03T12:24:09.738Z,1.50
2023-04-03T12:27:04.747Z,1.50
2023-04-03T12:29:34.096Z,1.60
2023-04-03T12:32:19.613Z,1.40
2023-04-03T12:35:28.002Z,1.80
2023-04-03T12:38:00.567Z,1.60
2023-04-03T12:40:59.162Z,1.40
2023-04-03T12:43:49.711Z,1.50
2023-04-03T12:46:19.846Z,1.20
2023-04-03T12:48:46.515Z,1.60
2023-04-03T12:51:27.381Z,1.60
2023-04-03T12:54:02.391Z,2.00
2023-04-03T12:56:33.377Z,1.70
2023-04-03T12:59:20.612Z,1.73
2023-04-03T13:02:11.482Z,1.60
2023-04-03T13:04:39.617Z,1.27
2023-04-03T13:07:06.448Z,1.60
2023-04-03T13:09:33.501Z,1.60
2023-04-03T13:12:17.024Z,1.60
2023-04-03T13:14:57.068Z,1.67
2023-04-03T13:17:24.155Z,1.70
2023-04-03T13:19:52.315Z,1.30
2023-04-03T13:22:18.899Z,1.60
2023-04-03T13:24:49.238Z,2.00
2023-04-03T13:27:16.427Z,1.57
2023-04-03T13:29:43.799Z,1.60
2023-04-03T13:32:23.323Z,1.80
2023-04-03T13:34:50.446Z,1.90
2023-04-03T13:37:31.386Z,1.90
2023-04-03T13:39:59.522Z,1.77
2023-04-03T13:42:30.631Z,1.90
2023-04-03T13:45:10.873Z,1.50
2023-04-03T13:47:42.955Z,1.80
2023-04-03T13:50:12.291Z,1.70
2023-04-03T13:52:51.288Z,1.57
2023-04-03T13:55:24.699Z,1.70
2023-04-03T13:57:52.019Z,1.53
2023-04-03T14:00:53.295Z,1.50
2023-04-03T14:03:34.046Z,1.50
2023-04-03T14:06:02.429Z,1.87
2023-04-03T14:08:41.753Z,1.50
2023-04-03T14:11:17.289Z,1.60
2023-04-03T14:13:45.482Z,1.33
2023-04-03T14:16:16.287Z,1.00
2023-04-03T14:18:44.593Z,1.70
2023-04-03T14:21:16.543Z,1.50
2023-04-03T14:23:43.690Z,1.43
2023-04-03T14:26:14.891Z,1.30
2023-04-03T14:28:43.976Z,1.40
2023-04-03T14:31:13.709Z,1.50
2023-04-03T14:33:40.553Z,1.80
2023-04-03T14:36:37.366Z,1.43
2023-04-03T14:39:05.630Z,1.50
2023-04-03T14:41:32.218Z,1.40
2023-04-03T14:43:58.852Z,1.33
2023-04-03T14:46:43.017Z,1.60
2023-04-03T14:49:18.915Z,1.57
2023-04-03T14:51:45.877Z,1.53
2023-04-03T14:54:20.443Z,1.40
2023-04-03T14:56:48.844Z,1.40
2023-04-03T14:59:16.413Z,1.10
2023-04-03T15:01:43.069Z,1.10
2023-04-03T15:04:21.790Z,1.40
2023-04-03T15:06:59.230Z,1.00
2023-04-03T15:09:28.292Z,1.10
2023-04-03T15:11:55.993Z,1.40
2023-04-03T15:14:35.619Z,1.20
2023-04-03T15:17:06.082Z,1.20
2023-04-03T15:19:40.550Z,1.30
2023-04-03T15:22:07.600Z,1.20
2023-04-03T15:24:34.388Z,1.27
2023-04-03T15:27:02.371Z,1.20
2023-04-03T15:29:29.116Z,1.23
2023-04-03T15:31:55.973Z,1.30
2023-04-03T15:34:23.165Z,1.20
2023-04-03T15:36:53.637Z,1.10
2023-04-03T15:39:21.564Z,1.10
2023-04-03T15:41:48.504Z,1.30
2023-04-03T15:44:18.435Z,1.33
2023-04-03T15:46:52.484Z,1.27
2023-04-03T15:49:21.828Z,1.10
2023-04-03T15:51:48.529Z,1.03
2023-04-03T15:54:15.613Z,1.23
2023-04-03T15:56:42.184Z,1.37
2023-04-03T15:59:08.778Z,1.30
2023-04-03T16:01:36.285Z,1.27
2023-04-03T16:04:03.076Z,1.20
2023-04-03T16:06:31.593Z,1.03
2023-04-03T16:08:59.050Z,1.20
2023-04-03T16:11:27.144Z,1.27
2023-04-03T16:13:55.012Z,0.97
2023-04-03T16:16:21.948Z,1.00
2023-04-03T16:18:49.125Z,0.87
2023-04-03T16:21:17.580Z,1.03
2023-04-03T16:23:45.712Z,1.00
2023-04-03T16:26:12.469Z,1.10
2023-04-03T16:28:39.159Z,1.27
2023-04-03T16:31:07.110Z,1.23
2023-04-03T16:33:34.415Z,1.10
2023-04-03T16:36:01.167Z,1.10
2023-04-03T16:38:27.835Z,0.90
2023-04-03T16:40:57.566Z,1.07
2023-04-03T16:43:24.254Z,1.00
2023-04-03T16:45:51.063Z,1.10
2023-04-03T16:48:17.790Z,1.10
2023-04-03T16:50:49.194Z,1.10
2023-04-03T16:53:16.422Z,1.20
2023-04-03T16:55:43.146Z,0.93
2023-04-03T16:58:11.115Z,1.17
2023-04-03T17:00:38.138Z,0.80
2023-04-03T17:03:04.831Z,1.03
2023-04-03T17:05:31.521Z,1.07
2023-04-03T17:07:59.680Z,0.90
2023-04-03T17:10:26.574Z,1.07
2023-04-03T17:12:53.176Z,1.23
2023-04-03T17:15:20.883Z,1.00
2023-04-03T17:17:50.053Z,1.10
2023-04-03T17:20:16.748Z,1.10
2023-04-03T17:22:43.793Z,1.37
2023-04-03T17:25:11.195Z,0.90
2023-04-03T17:27:38.165Z,0.90
2023-04-03T17:30:06.177Z,1.07
2023-04-03T17:32:32.860Z,1.10
2023-04-03T17:34:59.470Z,1.10
2023-04-03T17:37:26.166Z,0.90
2023-04-03T17:39:52.769Z,1.10
2023-04-03T17:42:19.383Z,0.90
2023-04-03T17:44:46.165Z,1.00
2023-04-03T17:47:15.352Z,1.20
2023-04-03T17:49:42.045Z,1.17
2023-04-03T17:52:08.743Z,0.93
2023-04-03T17:54:35.592Z,0.83
2023-04-03T17:57:04.571Z,1.10
2023-04-03T17:59:31.967Z,1.00
2023-04-03T18:01:58.711Z,1.30
2023-04-03T18:04:25.512Z,0.97
2023-04-03T18:06:55.511Z,0.97
2023-04-03T18:09:26.350Z,1.00
2023-04-03T18:11:53.843Z,1.00
2023-04-03T18:14:23.859Z,1.20
2023-04-03T18:16:50.673Z,1.00
2023-04-03T18:19:23.480Z,0.90
2023-04-03T18:21:52.604Z,1.30
2023-04-03T18:24:20.671Z,1.17
2023-04-03T18:26:51.742Z,1.10
2023-04-03T18:29:18.732Z,1.00
2023-04-03T18:31:50.624Z,0.97
2023-04-03T18:34:17.947Z,1.10
2023-04-03T18:36:45.000Z,1.07
2023-04-03T18:39:12.213Z,1.03
2023-04-03T18:41:39.635Z,1.13
2023-04-03T18:44:10.918Z,1.10
2023-04-03T18:49:11.456Z,1.20
2023-04-03T18:51:42.246Z,1.20
2023-04-03T18:54:10.093Z,1.20
2023-04-03T18:56:37.671Z,1.17
2023-04-03T18:59:05.757Z,1.10
2023-04-03T19:01:34.594Z,1.30
2023-04-03T19:04:02.335Z,1.37
2023-04-03T19:06:29.572Z,1.07
2023-04-03T19:08:56.864Z,1.00
2023-04-03T19:11:24.250Z,1.10
2023-04-03T19:14:10.391Z,1.10
2023-04-03T19:16:38.685Z,1.10
2023-04-03T19:19:07.125Z,1.30
2023-04-03T19:21:35.253Z,1.30
2023-04-03T19:24:02.318Z,1.20
2023-04-03T19:26:31.285Z,1.50
2023-04-03T19:28:58.006Z,1.50
2023-04-03T19:31:25.045Z,1.40
2023-04-03T19:33:52.272Z,1.80
2023-04-03T19:36:19.581Z,1.40
2023-04-03T19:38:46.935Z,1.20
2023-04-03T19:41:18.206Z,1.40
2023-04-03T19:43:46.891Z,1.33
2023-04-03T19:46:14.179Z,1.40
2023-04-03T19:48:41.156Z,1.37
2023-04-03T19:51:09.130Z,1.30
2023-04-03T19:53:36.652Z,1.40
2023-04-03T19:56:03.854Z,1.43
2023-04-03T19:58:30.848Z,1.50
2023-04-03T20:00:58.705Z,1.43
2023-04-03T20:03:37.144Z,1.20
2023-04-03T20:06:05.039Z,1.30
2023-04-03T20:08:32.562Z,1.37
2023-04-03T20:11:00.084Z,1.30
2023-04-03T20:13:27.377Z,1.30
2023-04-03T20:15:53.998Z,1.40
2023-04-03T20:18:21.164Z,1.50
2023-04-03T20:20:59.452Z,1.57
2023-04-03T20:23:27.307Z,1.40
2023-04-03T20:26:08.766Z,1.30
2023-04-03T20:28:38.007Z,1.37
2023-04-03T20:31:06.687Z,1.63
2023-04-03T20:33:33.944Z,1.30
2023-04-03T20:36:01.605Z,1.53
2023-04-03T20:38:28.226Z,1.57
2023-04-03T20:40:54.832Z,1.37
2023-04-03T20:43:23.318Z,1.53
2023-04-03T20:45:50.922Z,1.10
2023-04-03T20:48:18.493Z,1.20
2023-04-03T20:50:46.482Z,1.60
2023-04-03T20:53:14.929Z,1.30
2023-04-03T20:55:42.222Z,1.50
2023-04-03T20:58:08.926Z,1.50
2023-04-03T21:00:37.647Z,1.53
2023-04-03T21:03:04.686Z,1.30
2023-04-03T21:05:33.360Z,1.33
2023-04-03T21:08:37.639Z,1.50
2023-04-03T21:11:41.769Z,1.70
2023-04-03T21:14:46.888Z,1.33
2023-04-03T21:17:13.457Z,1.50
2023-04-03T21:19:46.239Z,1.43
2023-04-03T21:22:13.906Z,1.40
2023-04-03T21:24:41.054Z,1.50
2023-04-03T21:27:08.277Z,1.13
2023-04-03T21:29:34.934Z,1.57
2023-04-03T21:32:01.957Z,1.30
2023-04-03T21:34:30.292Z,1.40
2023-04-03T21:37:05.555Z,1.37
2023-04-03T21:39:33.098Z,1.40
2023-04-03T21:42:00.134Z,1.70
2023-04-03T21:44:29.690Z,1.30
2023-04-03T21:46:56.594Z,1.50
2023-04-03T21:49:24.880Z,1.80
2023-04-03T21:51:52.339Z,1.50
2023-04-03T21:54:19.496Z,1.20
2023-04-03T21:56:48.050Z,1.40
2023-04-03T21:59:15.952Z,1.40
2023-04-03T22:01:43.155Z,1.43
2023-04-03T22:04:09.867Z,1.57
2023-04-03T22:06:37.970Z,1.50
2023-04-03T22:09:04.640Z,1.50
2023-04-03T22:11:31.286Z,1.47
2023-04-03T22:13:58.180Z,1.90
2023-04-03T22:16:25.036Z,1.50
2023-04-03T22:18:52.791Z,1.53
2023-04-03T22:21:20.432Z,1.70
2023-04-03T22:23:47.125Z,1.30
2023-04-03T22:26:14.482Z,1.30
2023-04-03T22:28:43.491Z,1.80
2023-04-03T22:31:14.534Z,1.30
2023-04-03T22:33:42.599Z,1.30
2023-04-03T22:36:11.224Z,1.60
2023-04-03T22:38:39.025Z,1.43
2023-04-03T22:41:08.000Z,1.37
2023-04-03T22:43:36.588Z,1.57
2023-04-03T22:46:09.737Z,1.33
2023-04-03T22:48:38.568Z,1.83
2023-04-03T22:51:08.937Z,1.50
2023-04-03T22:53:36.461Z,1.40
2023-04-03T22:56:08.497Z,1.40
2023-04-03T22:58:35.139Z,1.20
2023-04-03T23:01:13.069Z,1.70
2023-04-03T23:03:41.431Z,1.40
2023-04-03T23:06:09.399Z,1.60
2023-04-03T23:08:40.836Z,1.40
2023-04-03T23:11:09.418Z,1.30
2023-04-03T23:13:36.877Z,1.73
2023-04-03T23:16:04.237Z,1.30
2023-04-03T23:18:32.614Z,1.60
2023-04-03T23:21:01.377Z,1.60
2023-04-03T23:23:28.181Z,1.80
2023-04-03T23:25:57.118Z,1.50
2023-04-03T23:28:24.270Z,1.40
2023-04-03T23:30:57.058Z,1.63
2023-04-03T23:33:23.622Z,1.30
2023-04-03T23:35:51.114Z,1.50
2023-04-03T23:38:17.848Z,1.33
2023-04-03T23:40:46.052Z,1.50
2023-04-03T23:43:12.963Z,1.57
2023-04-03T23:45:39.876Z,1.40
2023-04-03T23:48:06.778Z,1.77
2023-04-03T23:50:33.424Z,1.50
2023-04-03T23:53:00.020Z,1.50
2023-04-03T23:55:27.052Z,1.63
2023-04-03T23:57:53.662Z,1.43
